ZLLLZUUU

Guest
Details From ZLLL - Lanzhou-Zhongchuan
To ZUUU - SHUANGLIU
Flight Number -
Tags generated
Created
Modified
Stats Distance 451 nm / 835 km
Max Altitude 35,000 ft / 10,668 m
Waypoints 5
Social Downloads 0
Likes 0
Share VATSIM

Download

Looking for another format? Having issues loading an existing format? Contact us
Advertisement - Login to hide

Notes

Basic altitude profile: - Ascent Rate: 2500ft/min - Ascent Speed: 250kts - Cruise Altitude: 35000ft - Cruise Speed: 420kts - Descent Rate: 1500ft/min - Descent Speed: 250kts Options: - Use NATs: yes - Use PACOTS: yes - Use low airways: yes - Use high airways: yes

Route

ZLLL JTA B330 DOREX ZUUU

ID Type Via Altitude Latitude Longitude Leg Dist Tot Dist Heading (true) Name
O ZLLL APT - 0 ft / 0 m 36.51524˚ 103.62070˚ - 0 nm - Lanzhou-Zhongchuan
JTA VOR - 15,500 ft / 4,724 m 37.19500˚ 104.08000˚ 46 nm 46 nm 28° / 29° JINGTAI VOR-DME
OMBON FIX B330 (AWY-LO) 35,000 ft / 10,668 m 33.35667˚ 104.27167˚ 230 nm 277 nm 178° / 178° -
DOREX FIX B330 (AWY-LO) 15,900 ft / 4,846 m 31.14667˚ 104.38000˚ 132 nm 409 nm 178° / 178° -
O ZUUU APT - 0 ft / 0 m 30.57853˚ 103.94709˚ 40 nm 450 nm 213° / 213° SHUANGLIU

Altitude Profile

Advertisement - Login to hide

Weather


0- 5 10 15 20 25 30 35+ Temperature / ° C

Clouds and Precipitation
Forecast for 2017-12-16 00:00 UTC. Updated 41 minutes ago

Ground ~20,000 ft ~40,000 ft Winds

ZLLL

Details ICAO ZLLL (ZGC)
Name Lanzhou-Zhongchuan
Region China
Timezone Asia/Chongqing (UTC+8.0)
Stats Elevation 6,388 ft / 1,947 m (AMSL)
Location 36.515237° 103.620705°
Runways 1
Magnetic Variation 2.330° W

METAR

ZLLL 152200Z 35002MPS 320V020 CAVOK M14/M17 Q1034 NOSIG

Decode

TAF

Not found

Departure Runways

ID Width Length Bearing (true) Bearing (mag) Surface Threshold Offset Overrun Length
18 148 ft / 45 m 11,822 ft / 3,603 m 177.36° 179.69° Concrete 0 ft / 0 m 0 ft / 0 m
36 148 ft / 45 m 11,822 ft / 3,603 m 357.36° 359.69° Concrete 0 ft / 0 m 0 ft / 0 m

ZUUU

Details ICAO ZUUU (CTU)
Name SHUANGLIU
Region China
Timezone Asia/Chongqing (UTC+8.0)
Stats Elevation 1,625 ft / 495 m (AMSL)
Location 30.578528° 103.947086°
Runways 1
Magnetic Variation 1.981° W

METAR

ZUUU 152200Z 21001MPS 6000 NSC 07/05 Q1036 NOSIG

Decode

TAF

Not found

Destination Runways

ID Width Length Bearing (true) Bearing (mag) Surface Threshold Offset Overrun Length
02 197 ft / 60 m 11,834 ft / 3,607 m 21.84° 23.82° Concrete 0 ft / 0 m 196 ft / 60 m
20 197 ft / 60 m 11,834 ft / 3,607 m 201.85° 203.83° Concrete 0 ft / 0 m 196 ft / 60 m

Approach Navaids

Runway Type Ident Frequency Range Bearing (true) Bearing (mag) Slope Elevation
02 Localiser IZW 111.10 MHz 18 nm / 33 km 21.87° 23.85° - 1,624 ft / 495 m (AMSL)
02 Glidescope IZW 111.10 MHz 10 nm / 19 km 21.84° 23.83° 3.00° 1,624 ft / 495 m (AMSL)
20 Localiser IAA 109.10 MHz 18 nm / 33 km 201.87° 203.85° - 1,624 ft / 495 m (AMSL)
20 Glidescope IAA 109.10 MHz 10 nm / 19 km 201.84° 203.83° 3.00° 1,624 ft / 495 m (AMSL)